createdAt,value
2018-12-18T00:01:54.166Z,4.98
2018-12-18T00:04:22.702Z,4.97
2018-12-18T00:06:51.199Z,5.01
2018-12-18T00:09:19.580Z,5.04
2018-12-18T00:11:47.797Z,5.10
2018-12-18T00:14:16.138Z,5.19
2018-12-18T00:16:44.415Z,5.31
2018-12-18T00:19:12.681Z,5.39
2018-12-18T00:21:40.914Z,5.53
2018-12-18T00:24:09.186Z,5.61
2018-12-18T00:26:37.521Z,5.69
2018-12-18T00:29:05.744Z,5.69
2018-12-18T00:31:35.621Z,5.71
2018-12-18T00:34:04.094Z,5.74
2018-12-18T00:36:32.351Z,5.84
2018-12-18T00:39:00.732Z,5.82
2018-12-18T00:41:28.960Z,5.82
2018-12-18T00:43:57.233Z,5.88
2018-12-18T00:46:25.467Z,5.89
2018-12-18T00:48:53.755Z,5.82
2018-12-18T00:51:22.012Z,5.87
2018-12-18T00:53:50.258Z,5.96
2018-12-18T00:56:18.584Z,5.91
2018-12-18T00:58:46.856Z,5.94
2018-12-18T01:01:15.055Z,5.97
2018-12-18T01:03:43.389Z,5.98
2018-12-18T01:06:11.792Z,5.98
2018-12-18T01:08:41.121Z,5.91
2018-12-18T01:11:09.446Z,5.90
2018-12-18T01:16:30.190Z,5.91
2018-12-18T01:21:51.359Z,6.02
2018-12-18T01:24:19.696Z,6.10
2018-12-18T01:26:47.920Z,6.05
2018-12-18T01:29:16.161Z,6.06
2018-12-18T01:31:44.469Z,6.04
2018-12-18T01:34:12.749Z,6.04
2018-12-18T01:36:41.130Z,5.95
2018-12-18T01:39:09.352Z,5.93
2018-12-18T01:41:37.624Z,5.90
2018-12-18T01:44:05.876Z,6.00
2018-12-18T01:46:34.202Z,6.04
2018-12-18T01:49:02.440Z,6.00
2018-12-18T01:51:30.681Z,6.09
2018-12-18T01:53:58.922Z,6.06
2018-12-18T01:56:27.192Z,6.05
2018-12-18T01:58:55.581Z,6.16
2018-12-18T02:01:23.905Z,6.12
2018-12-18T02:03:52.153Z,6.06
2018-12-18T02:06:20.402Z,6.12
2018-12-18T02:08:48.693Z,6.10
2018-12-18T02:11:16.954Z,6.12
2018-12-18T02:13:45.230Z,6.08
2018-12-18T02:16:13.508Z,6.08
2018-12-18T02:18:41.948Z,6.10
2018-12-18T02:21:10.214Z,6.09
2018-12-18T02:23:38.911Z,6.14
2018-12-18T02:26:07.170Z,6.13
2018-12-18T02:28:35.410Z,6.17
2018-12-18T02:31:03.712Z,6.12
2018-12-18T02:33:32.111Z,6.21
2018-12-18T02:36:00.391Z,6.22
2018-12-18T02:38:28.842Z,6.25
2018-12-18T02:40:57.126Z,6.21
2018-12-18T02:43:25.384Z,6.20
2018-12-18T02:45:54.722Z,6.14
2018-12-18T02:48:23.250Z,6.29
2018-12-18T02:50:51.560Z,6.24
2018-12-18T02:53:19.974Z,6.23
2018-12-18T02:55:48.355Z,6.29
2018-12-18T02:58:16.681Z,6.36
2018-12-18T03:00:44.929Z,6.30
2018-12-18T03:03:13.545Z,6.36
2018-12-18T03:05:42.023Z,6.32
2018-12-18T03:08:10.241Z,6.28
2018-12-18T03:10:38.530Z,6.22
2018-12-18T03:13:06.789Z,6.20
2018-12-18T03:15:35.037Z,6.24
2018-12-18T03:18:03.253Z,6.27
2018-12-18T03:20:31.524Z,6.26
2018-12-18T03:22:59.759Z,6.33
2018-12-18T03:25:28.107Z,6.33
2018-12-18T03:27:56.900Z,6.31
2018-12-18T03:30:25.131Z,6.33
2018-12-18T03:32:55.900Z,6.36
2018-12-18T03:35:24.158Z,6.33
2018-12-18T03:37:52.423Z,6.30
2018-12-18T03:40:20.697Z,6.31
2018-12-18T03:42:48.934Z,6.32
2018-12-18T03:45:17.192Z,6.33
2018-12-18T03:47:45.432Z,6.35
2018-12-18T03:50:13.797Z,6.29
2018-12-18T03:52:42.045Z,6.35
2018-12-18T03:55:10.333Z,6.38
2018-12-18T03:57:38.608Z,6.43
2018-12-18T04:00:09.308Z,6.40
2018-12-18T04:02:37.638Z,6.42
2018-12-18T04:05:06.603Z,6.40
2018-12-18T04:07:34.940Z,6.45
2018-12-18T04:10:03.279Z,6.48
2018-12-18T04:12:31.503Z,6.45
2018-12-18T04:14:59.810Z,6.41
2018-12-18T04:17:28.128Z,6.35
2018-12-18T04:19:56.431Z,6.43
2018-12-18T04:22:24.693Z,6.42
2018-12-18T04:24:52.945Z,6.44
2018-12-18T04:27:21.177Z,6.41
2018-12-18T04:29:49.407Z,6.41
2018-12-18T04:32:17.683Z,6.42
2018-12-18T04:34:45.971Z,6.41
2018-12-18T04:37:14.488Z,6.46
2018-12-18T04:39:42.749Z,6.42
2018-12-18T04:42:10.993Z,6.38
2018-12-18T04:44:39.316Z,6.47
2018-12-18T04:47:07.527Z,6.46
2018-12-18T04:49:35.769Z,6.41
2018-12-18T04:52:04.118Z,6.38
2018-12-18T04:54:32.363Z,6.40
2018-12-18T04:57:00.620Z,6.44
2018-12-18T04:59:28.838Z,6.39
2018-12-18T05:01:57.076Z,6.41
2018-12-18T05:04:25.292Z,6.39
2018-12-18T05:06:53.658Z,6.39
2018-12-18T05:09:21.892Z,6.35
2018-12-18T05:11:50.156Z,6.35
2018-12-18T05:14:18.403Z,6.36
2018-12-18T05:16:46.650Z,6.41
2018-12-18T05:19:14.889Z,6.40
2018-12-18T05:21:43.239Z,6.40
2018-12-18T05:24:11.485Z,6.38
2018-12-18T05:26:39.699Z,6.33
2018-12-18T05:29:07.980Z,6.33
2018-12-18T05:31:36.644Z,6.41
2018-12-18T05:34:05.001Z,6.35
2018-12-18T05:36:33.528Z,6.35
2018-12-18T05:39:01.853Z,6.35
2018-12-18T05:41:30.076Z,6.44
2018-12-18T05:43:58.883Z,6.48
2018-12-18T05:46:27.127Z,6.38
2018-12-18T05:48:55.904Z,6.38
2018-12-18T05:51:24.256Z,6.42
2018-12-18T05:53:52.537Z,6.45
2018-12-18T05:56:20.784Z,6.44
2018-12-18T05:58:49.040Z,6.43
2018-12-18T06:01:17.379Z,6.46
2018-12-18T06:03:45.713Z,6.42
2018-12-18T06:06:14.015Z,6.40
2018-12-18T06:08:42.230Z,6.36
2018-12-18T06:11:10.481Z,6.39
2018-12-18T06:13:38.762Z,6.32
2018-12-18T06:16:07.100Z,6.29
2018-12-18T06:18:35.934Z,6.27
2018-12-18T06:21:04.209Z,6.26
2018-12-18T06:23:33.077Z,6.28
2018-12-18T06:26:01.940Z,6.28
2018-12-18T06:28:30.159Z,6.39
2018-12-18T06:30:58.753Z,6.41
2018-12-18T06:33:27.025Z,6.38
2018-12-18T06:35:55.293Z,6.34
2018-12-18T06:38:23.672Z,6.34
2018-12-18T06:40:51.907Z,6.33
2018-12-18T06:43:20.178Z,6.41
2018-12-18T06:45:48.524Z,6.36
2018-12-18T06:48:16.752Z,6.31
2018-12-18T06:50:45.024Z,6.36
2018-12-18T06:53:13.285Z,6.38
2018-12-18T06:55:41.520Z,6.36
2018-12-18T06:58:09.816Z,6.34
2018-12-18T07:00:38.034Z,6.34
2018-12-18T07:03:06.378Z,6.38
2018-12-18T07:05:34.631Z,6.36
2018-12-18T07:08:03.002Z,6.34
2018-12-18T07:10:31.279Z,6.38
2018-12-18T07:12:59.514Z,6.36
2018-12-18T07:15:27.802Z,6.36
2018-12-18T07:17:56.067Z,6.49
2018-12-18T07:20:24.303Z,6.49
2018-12-18T07:22:52.927Z,6.49
2018-12-18T07:25:21.157Z,6.40
2018-12-18T07:27:49.402Z,6.36
2018-12-18T07:30:17.857Z,6.35
2018-12-18T07:32:46.081Z,6.35
2018-12-18T07:35:14.412Z,6.40
2018-12-18T07:37:42.656Z,6.45
2018-12-18T07:40:10.981Z,6.50
2018-12-18T07:42:39.212Z,6.44
2018-12-18T07:45:07.665Z,6.49
2018-12-18T07:47:35.941Z,6.47
2018-12-18T07:50:04.946Z,6.39
2018-12-18T07:52:33.201Z,6.49
2018-12-18T07:55:01.475Z,6.52
2018-12-18T07:57:29.702Z,6.52
2018-12-18T07:59:57.972Z,6.59
2018-12-18T08:02:26.287Z,6.59
2018-12-18T08:04:54.573Z,6.60
2018-12-18T08:07:22.890Z,6.52
2018-12-18T08:09:51.121Z,6.52
2018-12-18T08:12:23.528Z,6.58
2018-12-18T08:14:51.829Z,6.48
2018-12-18T08:17:20.148Z,6.60
2018-12-18T08:19:48.454Z,6.56
2018-12-18T08:22:16.718Z,6.57
2018-12-18T08:24:44.933Z,6.61
2018-12-18T08:27:13.233Z,6.57
2018-12-18T08:29:41.469Z,6.55
2018-12-18T08:32:09.729Z,6.53
2018-12-18T08:34:37.985Z,6.48
2018-12-18T08:37:06.261Z,6.45
2018-12-18T08:39:34.536Z,6.42
2018-12-18T08:42:02.890Z,6.48
2018-12-18T08:44:31.201Z,6.61
2018-12-18T08:47:05.875Z,6.61
2018-12-18T08:49:34.178Z,6.64
2018-12-18T08:52:02.467Z,6.68
2018-12-18T08:54:30.708Z,6.69
2018-12-18T08:56:58.942Z,6.69
2018-12-18T08:59:27.193Z,6.77
2018-12-18T09:01:55.662Z,6.66
2018-12-18T09:04:23.913Z,6.69
2018-12-18T09:06:52.162Z,6.74
2018-12-18T09:09:20.390Z,6.78
2018-12-18T09:11:48.644Z,6.82
2018-12-18T09:14:16.914Z,6.81
2018-12-18T09:16:50.599Z,6.80
2018-12-18T09:19:19.664Z,6.72
2018-12-18T09:21:47.928Z,6.68
2018-12-18T09:24:16.185Z,6.73
2018-12-18T09:26:44.501Z,6.74
2018-12-18T09:29:12.912Z,6.65
2018-12-18T09:31:41.212Z,6.64
2018-12-18T09:34:09.597Z,6.69
2018-12-18T09:36:37.855Z,6.70
2018-12-18T09:39:13.617Z,6.76
2018-12-18T09:41:44.065Z,6.81
2018-12-18T09:44:16.278Z,6.80
2018-12-18T09:46:44.551Z,6.64
2018-12-18T09:49:12.799Z,6.66
2018-12-18T09:51:41.206Z,6.68
2018-12-18T09:54:09.651Z,6.71
2018-12-18T09:56:43.354Z,6.75
2018-12-18T09:59:11.742Z,6.64
2018-12-18T10:01:40.048Z,6.73
2018-12-18T10:04:08.295Z,6.63
2018-12-18T10:06:36.527Z,6.56
2018-12-18T10:09:09.708Z,6.71
2018-12-18T10:11:38.102Z,6.58
2018-12-18T10:14:06.623Z,6.52
2018-12-18T10:16:34.892Z,6.57
2018-12-18T10:19:03.136Z,6.51
2018-12-18T10:21:31.428Z,6.54
2018-12-18T10:23:59.696Z,6.63
2018-12-18T10:26:27.954Z,6.67
2018-12-18T10:28:56.207Z,6.57
2018-12-18T10:31:24.492Z,6.54
2018-12-18T10:33:52.835Z,6.66
2018-12-18T10:36:21.059Z,6.62
2018-12-18T10:38:49.367Z,6.71
2018-12-18T10:41:17.689Z,6.63
2018-12-18T10:43:46.074Z,6.59
2018-12-18T10:46:14.310Z,6.69
2018-12-18T10:48:42.787Z,6.65
2018-12-18T10:51:11.140Z,6.61
2018-12-18T10:53:39.381Z,6.63
2018-12-18T10:56:07.631Z,6.71
2018-12-18T10:58:35.842Z,6.79
2018-12-18T11:01:09.539Z,6.91
2018-12-18T11:03:37.780Z,6.89
2018-12-18T11:06:09.741Z,6.84
2018-12-18T11:08:36.421Z,6.80
2018-12-18T11:11:04.871Z,6.85
2018-12-18T11:13:33.133Z,6.83
2018-12-18T11:16:01.514Z,6.88
2018-12-18T11:18:29.783Z,6.94
2018-12-18T11:20:58.109Z,6.93
2018-12-18T11:23:26.368Z,6.91
2018-12-18T11:25:54.649Z,6.85
2018-12-18T11:28:22.925Z,6.93
2018-12-18T11:30:51.210Z,6.95
2018-12-18T11:33:19.508Z,6.91
2018-12-18T11:35:47.779Z,6.85
2018-12-18T11:38:16.070Z,6.96
2018-12-18T11:40:44.327Z,7.11
2018-12-18T11:43:12.586Z,7.02
2018-12-18T11:45:40.839Z,7.03
2018-12-18T11:48:09.314Z,7.08
2018-12-18T11:50:37.631Z,7.01
2018-12-18T11:53:06.111Z,6.95
2018-12-18T11:55:34.358Z,7.01
2018-12-18T11:58:02.629Z,6.95
2018-12-18T12:00:30.908Z,6.97
2018-12-18T12:02:59.161Z,6.95
2018-12-18T12:05:27.483Z,7.03
2018-12-18T12:07:55.752Z,7.14
2018-12-18T12:10:24.367Z,7.10
2018-12-18T12:12:52.643Z,7.10
2018-12-18T12:15:20.915Z,7.05
2018-12-18T12:17:49.440Z,7.08
2018-12-18T12:20:17.765Z,7.06
2018-12-18T12:22:46.044Z,7.12
2018-12-18T12:25:14.358Z,7.10
2018-12-18T12:27:48.021Z,7.14
2018-12-18T12:30:16.570Z,7.15
2018-12-18T12:32:45.105Z,7.14
2018-12-18T12:35:13.494Z,7.21
2018-12-18T12:37:41.787Z,7.15
2018-12-18T12:40:10.044Z,7.23
2018-12-18T12:42:38.398Z,7.22
2018-12-18T12:45:07.079Z,7.26
2018-12-18T12:47:35.729Z,7.22
2018-12-18T12:50:05.494Z,7.20
2018-12-18T12:52:33.762Z,7.25
2018-12-18T12:55:02.096Z,7.23
2018-12-18T12:57:30.374Z,7.29
2018-12-18T12:59:58.851Z,7.25
2018-12-18T13:02:27.148Z,7.20
2018-12-18T13:04:55.488Z,7.09
2018-12-18T13:07:23.804Z,7.16
2018-12-18T13:09:52.157Z,7.17
2018-12-18T13:12:20.414Z,7.24
2018-12-18T13:14:48.644Z,7.22
2018-12-18T13:17:16.965Z,7.14
2018-12-18T13:19:45.235Z,7.13
2018-12-18T13:25:07.199Z,7.15
2018-12-18T13:27:35.512Z,7.14
2018-12-18T13:32:56.309Z,7.11
2018-12-18T13:35:24.816Z,7.11
2018-12-18T13:37:53.073Z,7.23
2018-12-18T13:40:21.402Z,7.21
2018-12-18T13:42:49.696Z,7.17
2018-12-18T13:45:17.932Z,7.15
2018-12-18T13:47:46.204Z,7.23
2018-12-18T13:50:14.462Z,7.14
2018-12-18T13:52:42.831Z,7.08
2018-12-18T13:55:11.164Z,7.08
2018-12-18T13:57:39.502Z,7.17
2018-12-18T14:00:07.967Z,7.27
2018-12-18T14:02:36.309Z,7.25
2018-12-18T14:05:04.676Z,7.22
2018-12-18T14:07:32.982Z,7.16
2018-12-18T14:10:01.566Z,7.07
2018-12-18T14:12:29.823Z,7.14
2018-12-18T14:14:58.165Z,7.25
2018-12-18T14:17:26.441Z,7.26
2018-12-18T14:19:55.251Z,7.17
2018-12-18T14:22:23.515Z,7.15
2018-12-18T14:24:51.888Z,7.13
2018-12-18T14:27:20.168Z,7.19
2018-12-18T14:29:48.618Z,7.17
2018-12-18T14:32:16.875Z,7.03
2018-12-18T14:34:45.194Z,7.00
2018-12-18T14:37:13.684Z,6.95
2018-12-18T14:39:42.016Z,7.08
2018-12-18T14:42:10.342Z,6.99
2018-12-18T14:44:38.621Z,6.94
2018-12-18T14:47:06.857Z,6.95
2018-12-18T14:49:35.199Z,7.04
2018-12-18T14:52:03.444Z,7.08
2018-12-18T14:54:32.116Z,7.02
2018-12-18T14:57:00.786Z,6.94
2018-12-18T14:59:29.077Z,7.04
2018-12-18T15:01:57.764Z,7.01
2018-12-18T15:04:26.712Z,7.04
2018-12-18T15:06:55.101Z,6.92
2018-12-18T15:09:23.660Z,6.89
2018-12-18T15:11:51.984Z,7.00
2018-12-18T15:14:43.416Z,6.98
2018-12-18T15:17:11.721Z,6.91
2018-12-18T15:19:39.982Z,6.84
2018-12-18T15:22:08.500Z,6.88
2018-12-18T15:24:36.848Z,6.99
2018-12-18T15:27:05.191Z,6.91
2018-12-18T15:29:33.434Z,7.00
2018-12-18T15:32:01.707Z,7.04
2018-12-18T15:34:29.999Z,7.02
2018-12-18T15:36:58.291Z,6.91
2018-12-18T15:39:26.628Z,6.86
2018-12-18T15:41:54.903Z,6.93
2018-12-18T15:44:23.180Z,6.85
2018-12-18T15:46:51.403Z,6.94
2018-12-18T15:49:19.837Z,6.86
2018-12-18T15:51:48.504Z,6.87
2018-12-18T15:54:16.906Z,6.95
2018-12-18T15:56:45.164Z,7.05
2018-12-18T15:59:13.437Z,6.94
2018-12-18T16:01:41.671Z,6.99
2018-12-18T16:04:09.969Z,6.95
2018-12-18T16:06:38.285Z,6.79
2018-12-18T16:09:08.432Z,6.82
2018-12-18T16:11:36.772Z,6.87
2018-12-18T16:14:05.171Z,6.85
2018-12-18T16:16:33.631Z,6.80
2018-12-18T16:19:02.149Z,6.84
2018-12-18T16:21:30.382Z,6.82
2018-12-18T16:23:58.771Z,6.72
2018-12-18T16:26:27.051Z,6.81
2018-12-18T16:28:55.453Z,6.73
2018-12-18T16:31:23.679Z,6.67
2018-12-18T16:33:52.076Z,6.64
2018-12-18T16:36:20.348Z,6.57
2018-12-18T16:38:48.564Z,6.64
2018-12-18T16:41:16.877Z,6.57
2018-12-18T16:43:45.216Z,6.51
2018-12-18T16:46:13.467Z,6.54
2018-12-18T16:48:41.784Z,6.46
2018-12-18T16:51:10.106Z,6.41
2018-12-18T16:53:38.371Z,6.45
2018-12-18T16:56:06.695Z,6.47
2018-12-18T16:58:34.894Z,6.33
2018-12-18T17:01:03.276Z,6.35
2018-12-18T17:03:31.593Z,6.44
2018-12-18T17:05:59.852Z,6.34
2018-12-18T17:08:28.135Z,6.44
2018-12-18T17:10:56.440Z,6.35
2018-12-18T17:13:24.699Z,6.35
2018-12-18T17:15:53.003Z,6.30
2018-12-18T17:18:21.225Z,6.31
2018-12-18T17:20:49.463Z,6.26
2018-12-18T17:23:17.718Z,6.11
2018-12-18T17:25:45.973Z,6.24
2018-12-18T17:28:14.196Z,6.20
2018-12-18T17:30:42.460Z,6.24
2018-12-18T17:33:10.816Z,6.18
2018-12-18T17:35:40.242Z,6.17
2018-12-18T17:38:08.619Z,6.16
2018-12-18T17:40:37.085Z,6.12
2018-12-18T17:43:05.342Z,6.07
2018-12-18T17:45:33.571Z,6.00
2018-12-18T17:48:01.833Z,5.96
2018-12-18T17:50:30.191Z,6.00
2018-12-18T17:52:58.426Z,5.95
2018-12-18T17:55:26.765Z,5.98
2018-12-18T17:57:55.128Z,5.96
2018-12-18T18:00:23.571Z,5.85
2018-12-18T18:02:51.968Z,5.83
2018-12-18T18:05:20.225Z,5.81
2018-12-18T18:07:48.459Z,5.84
2018-12-18T18:10:16.731Z,5.74
2018-12-18T18:12:44.930Z,5.70
2018-12-18T18:15:13.591Z,5.72
2018-12-18T18:17:41.922Z,5.63
2018-12-18T18:20:10.606Z,5.63
2018-12-18T18:22:39.027Z,5.67
2018-12-18T18:25:07.405Z,5.58
2018-12-18T18:27:35.621Z,5.52
2018-12-18T18:30:04.427Z,5.50
2018-12-18T18:32:32.797Z,5.35
2018-12-18T18:35:01.143Z,5.38
2018-12-18T18:37:29.564Z,5.41
2018-12-18T18:39:58.031Z,5.44
2018-12-18T18:42:26.368Z,5.37
2018-12-18T18:44:54.687Z,5.32
2018-12-18T18:47:23.010Z,5.16
2018-12-18T18:49:51.276Z,5.15
2018-12-18T18:52:19.940Z,5.24
2018-12-18T18:54:48.300Z,5.15
2018-12-18T18:57:16.570Z,5.18
2018-12-18T18:59:44.864Z,5.16
2018-12-18T19:02:13.171Z,5.22
2018-12-18T19:04:41.482Z,5.06
2018-12-18T19:07:09.809Z,5.11
2018-12-18T19:09:38.122Z,5.04
2018-12-18T19:12:06.466Z,4.96
2018-12-18T19:14:34.754Z,5.00
2018-12-18T19:17:03.058Z,5.05
2018-12-18T19:19:32.293Z,4.89
2018-12-18T19:22:00.596Z,4.93
2018-12-18T19:24:28.860Z,4.82
2018-12-18T19:26:57.157Z,4.79
2018-12-18T19:29:25.498Z,4.81
2018-12-18T19:31:53.837Z,4.74
2018-12-18T19:34:22.121Z,4.65
2018-12-18T19:36:50.907Z,4.67
2018-12-18T19:39:19.435Z,4.74
2018-12-18T19:41:47.698Z,4.68
2018-12-18T19:44:16.045Z,4.82
2018-12-18T19:46:44.256Z,4.81
2018-12-18T19:49:12.789Z,4.76
2018-12-18T19:51:41.032Z,4.74
2018-12-18T19:54:09.343Z,4.69
2018-12-18T19:56:37.725Z,4.70
2018-12-18T19:59:10.777Z,4.64
2018-12-18T20:01:36.656Z,4.62
2018-12-18T20:04:04.982Z,4.61
2018-12-18T20:06:33.306Z,4.62
2018-12-18T20:09:01.880Z,4.63
2018-12-18T20:11:30.369Z,4.75
2018-12-18T20:13:58.730Z,4.72
2018-12-18T20:16:26.977Z,4.70
2018-12-18T20:18:55.462Z,4.69
2018-12-18T20:21:23.999Z,4.65
2018-12-18T20:23:52.520Z,4.69
2018-12-18T20:26:21.475Z,4.63
2018-12-18T20:28:49.975Z,4.73
2018-12-18T20:31:18.427Z,4.67
2018-12-18T20:33:46.810Z,4.64
2018-12-18T20:36:15.159Z,4.60
2018-12-18T20:41:36.369Z,4.57
2018-12-18T20:44:04.833Z,4.42
2018-12-18T20:46:33.474Z,4.34
2018-12-18T20:49:01.886Z,4.36
2018-12-18T20:51:30.347Z,4.25
2018-12-18T20:53:58.896Z,4.29
2018-12-18T20:56:27.503Z,4.28
2018-12-18T20:58:55.985Z,4.34
2018-12-18T21:01:24.640Z,4.38
2018-12-18T21:03:53.066Z,4.41
2018-12-18T21:06:22.370Z,4.32
2018-12-18T21:08:50.850Z,4.42
2018-12-18T21:11:19.289Z,4.40
2018-12-18T21:13:47.825Z,4.36
2018-12-18T21:16:16.595Z,4.27
2018-12-18T21:18:44.942Z,4.24
2018-12-18T21:21:15.599Z,4.22
2018-12-18T21:23:50.570Z,4.13
2018-12-18T21:26:18.861Z,4.14
2018-12-18T21:28:47.151Z,4.08
2018-12-18T21:31:15.548Z,4.03
2018-12-18T21:33:43.914Z,4.02
2018-12-18T21:36:12.229Z,4.03
2018-12-18T21:38:40.491Z,3.92
2018-12-18T21:41:08.785Z,4.04
2018-12-18T21:43:37.207Z,3.93
2018-12-18T21:46:05.564Z,3.95
2018-12-18T21:48:33.961Z,3.91
2018-12-18T21:51:02.321Z,3.95
2018-12-18T21:53:30.912Z,4.01
2018-12-18T21:55:59.252Z,3.93
2018-12-18T21:58:27.560Z,3.96
2018-12-18T22:00:55.858Z,3.95
2018-12-18T22:03:24.125Z,3.92
2018-12-18T22:05:52.458Z,4.04
2018-12-18T22:08:20.754Z,3.86
2018-12-18T22:10:49.090Z,3.88
2018-12-18T22:13:17.378Z,3.89
2018-12-18T22:15:48.889Z,3.81
2018-12-18T22:18:17.206Z,3.87
2018-12-18T22:20:45.676Z,3.86
2018-12-18T22:23:14.018Z,3.79
2018-12-18T22:25:42.251Z,3.72
2018-12-18T22:28:10.710Z,3.71
2018-12-18T22:30:39.026Z,3.66
2018-12-18T22:33:07.347Z,3.64
2018-12-18T22:35:35.651Z,3.62
2018-12-18T22:38:03.968Z,3.75
2018-12-18T22:40:32.232Z,3.79
2018-12-18T22:43:00.664Z,3.71
2018-12-18T22:45:28.930Z,3.68
2018-12-18T22:47:57.167Z,3.63
2018-12-18T22:50:25.491Z,3.67
2018-12-18T22:52:53.746Z,3.77
2018-12-18T22:55:21.967Z,3.73
2018-12-18T22:57:50.741Z,3.68
2018-12-18T23:00:24.317Z,3.58
2018-12-18T23:02:56.760Z,3.56
2018-12-18T23:05:25.120Z,3.54
2018-12-18T23:07:53.400Z,3.57
2018-12-18T23:10:21.636Z,3.62
2018-12-18T23:12:49.917Z,3.50
2018-12-18T23:15:18.176Z,3.50
2018-12-18T23:17:46.548Z,3.41
2018-12-18T23:20:14.820Z,3.43
2018-12-18T23:22:43.070Z,3.47
2018-12-18T23:25:11.336Z,3.68
2018-12-18T23:27:39.641Z,3.59
2018-12-18T23:30:08.004Z,3.58
2018-12-18T23:32:36.242Z,3.53
2018-12-18T23:35:04.590Z,3.51
2018-12-18T23:37:32.856Z,3.53
2018-12-18T23:40:01.143Z,3.43
2018-12-18T23:42:29.438Z,3.51
2018-12-18T23:44:57.755Z,3.43
2018-12-18T23:47:26.016Z,3.37
2018-12-18T23:49:54.244Z,3.44
2018-12-18T23:52:22.861Z,3.45
2018-12-18T23:54:51.220Z,3.44
2018-12-18T23:57:19.442Z,3.41
2018-12-18T23:59:47.708Z,3.42
